LSZH

Zurich Airport

ICAO Code LSZH
IATA Code ZRH
Name Zurich Airport
Location Zurich, Zurich, CH
Elevation 1416 Feet / 431.6 Meters
Latitude 47.46469879
Longitude 8.54916954
METAR LSZH 211020Z VRB02KT 9999 FEW034 24/15 Q1010 NOSIG
Extra information Display Charts and CFS
Display NOTAMS
Runway Length Width Surface Elevation
10 8202 ft 197 ft CON 1391 ft
14 10827 ft 197 ft CON 1402 ft
16 12139 ft 197 ft CON 1390 ft
28 8202 ft 197 ft CON 1416 ft
32 10827 ft 197 ft CON 1402 ft
34 12139 ft 197 ft CON 1388 ft